createdAt,value
2018-09-18T00:01:12.289Z,67.60
2018-09-18T00:03:40.530Z,67.80
2018-09-18T00:06:08.861Z,68.20
2018-09-18T00:08:37.101Z,68.20
2018-09-18T00:11:05.306Z,67.90
2018-09-18T00:13:33.530Z,67.60
2018-09-18T00:16:01.757Z,67.70
2018-09-18T00:18:29.997Z,67.80
2018-09-18T00:20:58.253Z,67.90
2018-09-18T00:23:26.464Z,68.20
2018-09-18T00:25:54.683Z,68.50
2018-09-18T00:28:22.985Z,68.60
2018-09-18T00:30:51.241Z,68.70
2018-09-18T00:33:19.474Z,68.60
2018-09-18T00:35:47.750Z,68.70
2018-09-18T00:38:15.962Z,68.40
2018-09-18T00:40:44.212Z,68.00
2018-09-18T00:43:12.454Z,68.00
2018-09-18T00:45:40.645Z,68.70
2018-09-18T00:48:08.889Z,67.90
2018-09-18T00:50:37.103Z,67.90
2018-09-18T00:53:05.343Z,68.10
2018-09-18T00:55:33.553Z,67.90
2018-09-18T00:58:01.801Z,68.00
2018-09-18T01:00:30.042Z,67.90
2018-09-18T01:02:58.276Z,67.80
2018-09-18T01:05:26.505Z,68.00
2018-09-18T01:07:54.713Z,68.40
2018-09-18T01:10:22.941Z,68.30
2018-09-18T01:12:51.145Z,68.50
2018-09-18T01:15:19.626Z,69.30
2018-09-18T01:17:47.880Z,70.00
2018-09-18T01:20:16.154Z,70.30
2018-09-18T01:22:44.361Z,70.50
2018-09-18T01:25:12.596Z,70.80
2018-09-18T01:27:40.809Z,71.30
2018-09-18T01:30:09.076Z,71.10
2018-09-18T01:32:37.256Z,70.70
2018-09-18T01:35:05.492Z,70.30
2018-09-18T01:37:33.697Z,70.00
2018-09-18T01:40:01.942Z,70.20
2018-09-18T01:42:30.169Z,70.50
2018-09-18T01:44:58.402Z,70.60
2018-09-18T01:47:26.637Z,70.60
2018-09-18T01:49:54.842Z,70.50
2018-09-18T01:52:23.056Z,71.00
2018-09-18T01:54:51.265Z,71.10
2018-09-18T01:57:19.615Z,71.30
2018-09-18T01:59:47.844Z,71.00
2018-09-18T02:02:16.037Z,70.70
2018-09-18T02:04:44.248Z,70.40
2018-09-18T02:07:12.467Z,69.80
2018-09-18T02:09:40.705Z,69.80
2018-09-18T02:12:09.173Z,69.40
2018-09-18T02:14:37.797Z,69.00
2018-09-18T02:17:06.178Z,68.90
2018-09-18T02:19:34.641Z,68.80
2018-09-18T02:22:03.216Z,68.90
2018-09-18T02:24:31.842Z,69.10
2018-09-18T02:27:00.051Z,69.10
2018-09-18T02:29:28.285Z,68.90
2018-09-18T02:31:56.503Z,69.00
2018-09-18T02:34:24.795Z,68.80
2018-09-18T02:36:53.075Z,69.80
2018-09-18T02:39:21.291Z,69.80
2018-09-18T02:41:49.531Z,70.20
2018-09-18T02:44:17.745Z,70.50
2018-09-18T02:46:45.990Z,69.80
2018-09-18T02:49:14.229Z,69.60
2018-09-18T02:51:42.433Z,69.60
2018-09-18T02:54:10.662Z,69.60
2018-09-18T02:56:39.035Z,70.00
2018-09-18T02:59:07.254Z,70.40
2018-09-18T03:01:35.468Z,70.70
2018-09-18T03:04:03.709Z,70.50
2018-09-18T03:06:31.946Z,70.90
2018-09-18T03:09:00.150Z,71.10
2018-09-18T03:11:28.474Z,71.00
2018-09-18T03:13:56.584Z,71.30
2018-09-18T03:16:24.842Z,71.30
2018-09-18T03:18:53.046Z,71.40
2018-09-18T03:21:22.258Z,71.50
2018-09-18T03:23:50.486Z,71.60
2018-09-18T03:26:18.747Z,71.50
2018-09-18T03:28:47.042Z,72.00
2018-09-18T03:31:15.285Z,71.80
2018-09-18T03:33:43.504Z,72.10
2018-09-18T03:36:11.767Z,72.10
2018-09-18T03:38:39.953Z,72.00
2018-09-18T03:41:08.227Z,72.00
2018-09-18T03:43:36.485Z,72.10
2018-09-18T03:46:04.765Z,72.10
2018-09-18T03:48:33.045Z,72.70
2018-09-18T03:51:01.286Z,73.00
2018-09-18T03:53:29.501Z,73.40
2018-09-18T03:55:57.796Z,73.70
2018-09-18T03:58:26.252Z,73.30
2018-09-18T04:00:54.553Z,74.10
2018-09-18T04:03:22.837Z,74.50
2018-09-18T04:05:51.117Z,74.30
2018-09-18T04:08:19.340Z,74.00
2018-09-18T04:10:47.608Z,74.30
2018-09-18T04:13:15.825Z,74.80
2018-09-18T04:15:44.085Z,75.10
2018-09-18T04:18:14.498Z,75.30
2018-09-18T04:20:42.715Z,74.90
2018-09-18T04:23:10.949Z,74.20
2018-09-18T04:25:39.188Z,74.00
2018-09-18T04:28:07.431Z,73.80
2018-09-18T04:30:35.661Z,73.60
2018-09-18T04:33:03.880Z,73.60
2018-09-18T04:35:32.164Z,73.30
2018-09-18T04:38:00.440Z,73.00
2018-09-18T04:40:28.709Z,73.30
2018-09-18T04:42:56.967Z,73.20
2018-09-18T04:45:25.227Z,73.80
2018-09-18T04:47:53.498Z,74.20
2018-09-18T04:50:21.745Z,74.00
2018-09-18T04:52:50.087Z,73.90
2018-09-18T04:55:18.378Z,74.00
2018-09-18T04:57:46.827Z,74.10
2018-09-18T05:00:15.098Z,74.60
2018-09-18T05:02:43.370Z,75.00
2018-09-18T05:05:11.602Z,75.60
2018-09-18T05:07:39.886Z,75.70
2018-09-18T05:10:08.289Z,75.80
2018-09-18T05:12:36.608Z,75.80
2018-09-18T05:15:05.825Z,75.30
2018-09-18T05:17:34.078Z,75.00
2018-09-18T05:20:02.430Z,74.90
2018-09-18T05:22:30.799Z,74.80
2018-09-18T05:24:59.327Z,74.30
2018-09-18T05:27:27.665Z,74.30
2018-09-18T05:29:55.869Z,74.80
2018-09-18T05:32:24.208Z,74.80
2018-09-18T05:34:52.619Z,74.90
2018-09-18T05:37:20.903Z,75.10
2018-09-18T05:39:49.189Z,75.60
2018-09-18T05:42:17.439Z,76.00
2018-09-18T05:44:45.656Z,76.50
2018-09-18T05:47:14.514Z,76.20
2018-09-18T05:49:42.787Z,76.20
2018-09-18T05:52:11.055Z,75.80
2018-09-18T05:54:39.331Z,75.60
2018-09-18T05:57:07.741Z,75.30
2018-09-18T05:59:35.997Z,75.10
2018-09-18T06:02:04.303Z,75.20
2018-09-18T06:04:32.553Z,74.80
2018-09-18T06:07:00.825Z,74.60
2018-09-18T06:09:29.155Z,73.90
2018-09-18T06:11:57.394Z,73.50
2018-09-18T06:14:25.656Z,73.10
2018-09-18T06:16:53.900Z,72.50
2018-09-18T06:19:22.222Z,72.00
2018-09-18T06:21:50.477Z,71.40
2018-09-18T06:24:18.766Z,71.00
2018-09-18T06:26:47.036Z,70.30
2018-09-18T06:29:15.257Z,69.50
2018-09-18T06:31:43.509Z,68.00
2018-09-18T06:34:11.767Z,68.00
2018-09-18T06:36:40.113Z,66.90
2018-09-18T06:39:09.716Z,65.60
2018-09-18T06:41:38.054Z,64.60
2018-09-18T06:44:06.317Z,63.80
2018-09-18T06:46:34.575Z,62.80
2018-09-18T06:49:02.843Z,61.70
2018-09-18T06:51:31.258Z,61.00
2018-09-18T06:53:59.581Z,59.30
2018-09-18T06:56:27.851Z,58.90
2018-09-18T06:58:56.076Z,57.10
2018-09-18T07:01:24.293Z,56.10
2018-09-18T07:03:52.518Z,55.70
2018-09-18T07:06:20.832Z,54.60
2018-09-18T07:08:49.078Z,54.80
2018-09-18T07:11:17.401Z,53.90
2018-09-18T07:13:45.863Z,53.30
2018-09-18T07:16:14.072Z,52.30
2018-09-18T07:18:42.467Z,51.10
2018-09-18T07:21:10.918Z,51.40
2018-09-18T07:23:39.234Z,51.20
2018-09-18T07:26:07.698Z,50.40
2018-09-18T07:28:35.934Z,49.70
2018-09-18T07:31:04.230Z,48.40
2018-09-18T07:33:38.951Z,47.20
2018-09-18T07:36:07.261Z,47.80
2018-09-18T07:38:35.533Z,46.80
2018-09-18T07:41:03.880Z,45.80
2018-09-18T07:43:32.085Z,45.60
2018-09-18T07:46:00.317Z,45.00
2018-09-18T07:48:33.581Z,44.90
2018-09-18T07:51:01.867Z,44.30
2018-09-18T07:53:30.189Z,44.50
2018-09-18T07:55:58.516Z,43.90
2018-09-18T07:58:27.125Z,42.50
2018-09-18T08:00:55.393Z,42.20
2018-09-18T08:03:23.692Z,41.80
2018-09-18T08:05:51.908Z,41.20
2018-09-18T08:08:20.177Z,41.00
2018-09-18T08:10:48.528Z,40.20
2018-09-18T08:13:16.742Z,39.60
2018-09-18T08:15:45.470Z,39.70
2018-09-18T08:18:13.700Z,39.40
2018-09-18T08:20:41.964Z,39.40
2018-09-18T08:23:10.626Z,40.10
2018-09-18T08:25:38.953Z,40.00
2018-09-18T08:28:07.259Z,40.20
2018-09-18T08:30:35.555Z,40.20
2018-09-18T08:33:03.888Z,39.80
2018-09-18T08:35:32.180Z,39.60
2018-09-18T08:38:00.427Z,39.30
2018-09-18T08:40:28.710Z,38.70
2018-09-18T08:42:57.057Z,39.20
2018-09-18T08:45:25.362Z,39.30
2018-09-18T08:47:53.629Z,38.70
2018-09-18T08:50:21.913Z,38.00
2018-09-18T08:52:50.198Z,36.70
2018-09-18T08:55:18.531Z,36.40
2018-09-18T08:57:46.826Z,35.50
2018-09-18T09:00:15.256Z,36.00
2018-09-18T09:02:43.521Z,35.20
2018-09-18T09:05:11.765Z,35.30
2018-09-18T09:07:40.109Z,34.90
2018-09-18T09:10:08.437Z,35.00
2018-09-18T09:12:36.785Z,34.10
2018-09-18T09:15:05.427Z,33.60
2018-09-18T09:17:33.657Z,33.30
2018-09-18T09:20:01.922Z,32.90
2018-09-18T09:22:30.153Z,33.00
2018-09-18T09:24:58.429Z,33.10
2018-09-18T09:27:26.694Z,32.90
2018-09-18T09:29:55.035Z,33.10
2018-09-18T09:32:23.295Z,32.60
2018-09-18T09:34:52.277Z,32.00
2018-09-18T09:37:20.558Z,32.00
2018-09-18T09:39:48.757Z,31.80
2018-09-18T09:42:17.695Z,31.80
2018-09-18T09:44:45.962Z,31.20
2018-09-18T09:47:14.580Z,31.20
2018-09-18T09:49:42.855Z,30.60
2018-09-18T09:52:11.099Z,30.60
2018-09-18T09:54:39.412Z,30.40
2018-09-18T09:57:07.725Z,29.70
2018-09-18T09:59:35.983Z,29.90
2018-09-18T10:02:09.838Z,29.70
2018-09-18T10:04:38.061Z,30.00
2018-09-18T10:07:06.364Z,29.80
2018-09-18T10:09:34.609Z,30.00
2018-09-18T10:12:02.862Z,30.00
2018-09-18T10:14:31.098Z,29.40
2018-09-18T10:16:59.350Z,29.30
2018-09-18T10:19:27.666Z,29.40
2018-09-18T10:21:55.891Z,29.10
2018-09-18T10:24:24.262Z,29.10
2018-09-18T10:26:52.483Z,29.10
2018-09-18T10:29:20.747Z,29.40
2018-09-18T10:31:49.112Z,29.60
2018-09-18T10:34:17.397Z,29.60
2018-09-18T10:36:45.704Z,30.20
2018-09-18T10:39:14.046Z,29.90
2018-09-18T10:41:42.740Z,29.80
2018-09-18T10:44:11.240Z,30.00
2018-09-18T10:46:39.524Z,30.10
2018-09-18T10:49:07.775Z,29.30
2018-09-18T10:51:36.034Z,29.70
2018-09-18T10:54:04.248Z,29.80
2018-09-18T10:56:32.506Z,30.10
2018-09-18T10:59:00.773Z,30.40
2018-09-18T11:01:29.016Z,30.30
2018-09-18T11:03:57.335Z,31.00
2018-09-18T11:06:25.583Z,30.70
2018-09-18T11:08:53.972Z,30.40
2018-09-18T11:11:22.549Z,31.50
2018-09-18T11:13:50.877Z,31.50
2018-09-18T11:16:19.083Z,31.70
2018-09-18T11:18:47.348Z,32.10
2018-09-18T11:21:15.606Z,32.30
2018-09-18T11:23:43.993Z,33.40
2018-09-18T11:26:12.251Z,32.20
2018-09-18T11:28:40.761Z,31.80
2018-09-18T11:31:08.992Z,32.20
2018-09-18T11:33:37.322Z,32.50
2018-09-18T11:36:05.557Z,32.00
2018-09-18T11:38:33.838Z,31.70
2018-09-18T11:41:02.077Z,31.20
2018-09-18T11:43:30.341Z,31.00
2018-09-18T11:45:58.937Z,31.30
2018-09-18T11:48:27.155Z,32.00
2018-09-18T11:50:55.425Z,32.10
2018-09-18T11:53:23.702Z,32.50
2018-09-18T11:55:51.936Z,32.70
2018-09-18T11:58:20.301Z,32.20
2018-09-18T12:00:48.615Z,32.60
2018-09-18T12:03:17.008Z,32.80
2018-09-18T12:05:45.360Z,31.60
2018-09-18T12:08:13.662Z,31.50
2018-09-18T12:10:42.081Z,32.40
2018-09-18T12:13:10.401Z,31.80
2018-09-18T12:15:38.711Z,30.70
2018-09-18T12:18:07.218Z,31.10
2018-09-18T12:20:35.509Z,30.80
2018-09-18T12:23:04.097Z,31.10
2018-09-18T12:25:32.493Z,29.90
2018-09-18T12:28:01.056Z,29.00
2018-09-18T12:30:29.301Z,29.20
2018-09-18T12:32:57.789Z,29.50
2018-09-18T12:35:26.342Z,28.60
2018-09-18T12:37:54.583Z,28.60
2018-09-18T12:40:22.870Z,28.00
2018-09-18T12:42:51.328Z,28.30
2018-09-18T12:45:19.715Z,28.60
2018-09-18T12:47:47.946Z,28.70
2018-09-18T12:50:16.409Z,28.40
2018-09-18T12:52:45.015Z,28.60
2018-09-18T12:55:13.291Z,28.70
2018-09-18T12:57:41.565Z,28.40
2018-09-18T13:00:09.858Z,28.50
2018-09-18T13:02:38.149Z,28.40
2018-09-18T13:05:06.431Z,27.80
2018-09-18T13:07:34.692Z,27.40
2018-09-18T13:10:03.009Z,27.80
2018-09-18T13:12:31.259Z,27.60
2018-09-18T13:14:59.605Z,27.60
2018-09-18T13:17:27.915Z,27.70
2018-09-18T13:19:56.489Z,27.50
2018-09-18T13:22:24.728Z,27.80
2018-09-18T13:24:52.935Z,27.10
2018-09-18T13:27:21.234Z,27.40
2018-09-18T13:29:49.493Z,28.20
2018-09-18T13:32:17.818Z,27.30
2018-09-18T13:34:46.022Z,27.20
2018-09-18T13:37:14.330Z,26.50
2018-09-18T13:39:42.795Z,26.30
2018-09-18T13:42:11.075Z,26.30
2018-09-18T13:44:39.351Z,25.50
2018-09-18T13:47:07.593Z,25.60
2018-09-18T13:49:35.812Z,25.20
2018-09-18T13:52:04.571Z,25.20
2018-09-18T13:54:33.427Z,25.40
2018-09-18T13:57:01.651Z,25.20
2018-09-18T13:59:29.927Z,25.30
2018-09-18T14:01:58.201Z,25.40
2018-09-18T14:04:26.493Z,25.30
2018-09-18T14:06:54.738Z,24.80
2018-09-18T14:09:23.178Z,24.40
2018-09-18T14:11:51.455Z,24.30
2018-09-18T14:14:20.393Z,24.10
2018-09-18T14:16:48.719Z,24.40
2018-09-18T14:19:17.045Z,24.50
2018-09-18T14:21:45.420Z,24.70
2018-09-18T14:24:13.658Z,23.90
2018-09-18T14:26:42.023Z,23.50
2018-09-18T14:29:11.218Z,23.20
2018-09-18T14:31:39.467Z,23.10
2018-09-18T14:34:07.841Z,23.40
2018-09-18T14:36:36.184Z,23.10
2018-09-18T14:39:06.920Z,23.80
2018-09-18T14:41:35.453Z,23.60
2018-09-18T14:44:03.754Z,23.30
2018-09-18T14:46:33.029Z,23.30
2018-09-18T14:49:01.357Z,23.20
2018-09-18T14:51:30.158Z,23.20
2018-09-18T14:53:58.569Z,23.40
2018-09-18T14:56:26.851Z,23.60
2018-09-18T14:58:55.122Z,23.60
2018-09-18T15:01:23.397Z,23.90
2018-09-18T15:03:51.893Z,24.00
2018-09-18T15:06:20.362Z,24.20
2018-09-18T15:08:48.832Z,24.30
2018-09-18T15:11:18.508Z,24.60
2018-09-18T15:13:46.783Z,24.60
2018-09-18T15:16:15.135Z,25.50
2018-09-18T15:18:43.481Z,25.20
2018-09-18T15:21:11.866Z,25.90
2018-09-18T15:23:40.138Z,26.60
2018-09-18T15:26:08.417Z,27.30
2018-09-18T15:28:36.693Z,28.60
2018-09-18T15:31:05.862Z,29.20
2018-09-18T15:33:34.277Z,29.80
2018-09-18T15:36:02.761Z,30.20
2018-09-18T15:38:31.092Z,30.70
2018-09-18T15:40:59.313Z,30.90
2018-09-18T15:43:27.671Z,31.60
2018-09-18T15:45:56.099Z,32.00
2018-09-18T15:48:24.475Z,32.20
2018-09-18T15:50:52.911Z,32.50
2018-09-18T15:53:21.198Z,32.70
2018-09-18T15:55:49.636Z,33.10
2018-09-18T15:58:17.912Z,33.20
2018-09-18T16:00:47.013Z,33.40
2018-09-18T16:03:15.324Z,33.70
2018-09-18T16:05:43.591Z,33.80
2018-09-18T16:08:11.853Z,34.10
2018-09-18T16:10:40.339Z,34.40
2018-09-18T16:13:08.641Z,34.90
2018-09-18T16:15:37.005Z,35.40
2018-09-18T16:18:05.580Z,36.00
2018-09-18T16:20:33.857Z,36.40
2018-09-18T16:23:02.159Z,37.10
2018-09-18T16:25:30.436Z,37.60
2018-09-18T16:27:59.135Z,38.10
2018-09-18T16:30:27.393Z,38.40
2018-09-18T16:32:55.740Z,38.80
2018-09-18T16:35:24.005Z,39.20
2018-09-18T16:37:52.339Z,39.30
2018-09-18T16:40:20.910Z,39.40
2018-09-18T16:42:49.158Z,39.50
2018-09-18T16:45:17.514Z,39.50
2018-09-18T16:47:45.778Z,39.70
2018-09-18T16:50:14.046Z,39.80
2018-09-18T16:52:42.426Z,40.00
2018-09-18T16:55:10.799Z,39.90
2018-09-18T16:57:39.013Z,39.50
2018-09-18T17:00:07.450Z,39.50
2018-09-18T17:02:35.795Z,39.50
2018-09-18T17:05:04.096Z,39.70
2018-09-18T17:07:32.434Z,39.80
2018-09-18T17:10:01.788Z,39.90
2018-09-18T17:12:30.362Z,39.70
2018-09-18T17:14:58.787Z,39.90
2018-09-18T17:17:27.623Z,40.20
2018-09-18T17:19:56.096Z,40.60
2018-09-18T17:22:25.162Z,40.80
2018-09-18T17:24:53.416Z,41.10
2018-09-18T17:27:21.940Z,40.70
2018-09-18T17:29:50.760Z,40.60
2018-09-18T17:32:18.999Z,40.70
2018-09-18T17:34:47.249Z,40.40
2018-09-18T17:37:15.730Z,40.30
2018-09-18T17:39:44.117Z,40.60
2018-09-18T17:42:12.353Z,40.80
2018-09-18T17:44:40.694Z,41.80
2018-09-18T17:47:09.018Z,41.70
2018-09-18T17:49:37.447Z,41.70
2018-09-18T17:52:05.718Z,41.60
2018-09-18T17:54:35.170Z,41.60
2018-09-18T17:57:06.610Z,41.60
2018-09-18T17:59:38.245Z,41.80
2018-09-18T18:02:07.566Z,42.00
2018-09-18T18:04:35.916Z,41.60
2018-09-18T18:07:04.262Z,40.20
2018-09-18T18:09:32.558Z,40.00
2018-09-18T18:12:00.913Z,40.00
2018-09-18T18:14:29.285Z,40.70
2018-09-18T18:16:57.564Z,40.80
2018-09-18T18:19:26.053Z,41.00
2018-09-18T18:21:54.515Z,41.10
2018-09-18T18:24:22.724Z,41.10
2018-09-18T18:26:50.985Z,41.00
2018-09-18T18:29:19.637Z,41.30
2018-09-18T18:31:48.104Z,41.50
2018-09-18T18:34:16.343Z,41.60
2018-09-18T18:36:44.607Z,41.70
2018-09-18T18:39:12.858Z,42.00
2018-09-18T18:41:41.205Z,42.40
2018-09-18T18:44:09.415Z,42.10
2018-09-18T18:46:37.705Z,42.50
2018-09-18T18:49:05.994Z,42.60
2018-09-18T18:51:34.341Z,42.60
2018-09-18T18:54:03.745Z,42.80
2018-09-18T18:56:32.055Z,43.10
2018-09-18T18:59:00.484Z,43.30
2018-09-18T19:01:28.860Z,43.40
2018-09-18T19:03:57.200Z,43.60
2018-09-18T19:06:25.650Z,43.60
2018-09-18T19:08:54.413Z,43.60
2018-09-18T19:11:22.733Z,43.80
2018-09-18T19:13:51.170Z,43.90
2018-09-18T19:16:19.858Z,44.10
2018-09-18T19:18:48.191Z,44.40
2018-09-18T19:21:16.459Z,45.00
2018-09-18T19:23:44.828Z,45.40
2018-09-18T19:26:13.266Z,45.80
2018-09-18T19:28:41.686Z,45.80
2018-09-18T19:31:09.972Z,45.90
2018-09-18T19:33:38.333Z,45.90
2018-09-18T19:36:06.612Z,45.90
2018-09-18T19:38:34.944Z,45.80
2018-09-18T19:41:03.170Z,45.90
2018-09-18T19:43:31.753Z,45.60
2018-09-18T19:46:00.087Z,45.90
2018-09-18T19:48:28.371Z,45.90
2018-09-18T19:50:56.606Z,46.00
2018-09-18T19:53:24.937Z,46.20
2018-09-18T19:55:53.311Z,46.20
2018-09-18T19:58:21.827Z,46.30
2018-09-18T20:00:50.177Z,46.30
2018-09-18T20:03:18.387Z,46.40
2018-09-18T20:05:46.705Z,46.60
2018-09-18T20:08:14.925Z,46.90
2018-09-18T20:10:43.205Z,47.20
2018-09-18T20:13:11.533Z,47.30
2018-09-18T20:15:39.760Z,47.10
2018-09-18T20:18:08.077Z,47.10
2018-09-18T20:20:36.427Z,47.20
2018-09-18T20:23:04.693Z,47.30
2018-09-18T20:25:33.346Z,47.50
2018-09-18T20:28:01.607Z,47.10
2018-09-18T20:30:29.922Z,46.90
2018-09-18T20:32:58.218Z,46.50
2018-09-18T20:35:26.465Z,46.10
2018-09-18T20:37:54.728Z,45.60
2018-09-18T20:40:22.982Z,45.30
2018-09-18T20:42:51.213Z,45.00
2018-09-18T20:45:19.534Z,44.70
2018-09-18T20:47:47.821Z,44.70
2018-09-18T20:50:16.151Z,44.50
2018-09-18T20:52:44.474Z,44.30
2018-09-18T20:55:12.748Z,44.10
2018-09-18T20:57:41.082Z,43.80
2018-09-18T21:00:09.433Z,43.70
2018-09-18T21:02:37.777Z,43.90
2018-09-18T21:05:06.155Z,43.90
2018-09-18T21:07:34.441Z,44.10
2018-09-18T21:10:04.087Z,44.10
2018-09-18T21:12:32.758Z,44.40
2018-09-18T21:15:01.045Z,44.30
2018-09-18T21:17:29.313Z,45.10
2018-09-18T21:19:57.611Z,44.80
2018-09-18T21:22:25.833Z,44.70
2018-09-18T21:25:17.033Z,44.60
2018-09-18T21:27:46.387Z,44.50
2018-09-18T21:30:15.795Z,44.50
2018-09-18T21:32:44.372Z,44.60
2018-09-18T21:35:12.752Z,44.60
2018-09-18T21:37:41.489Z,44.60
2018-09-18T21:40:09.795Z,45.30
2018-09-18T21:42:38.066Z,45.00
2018-09-18T21:45:06.358Z,45.90
2018-09-18T21:47:34.607Z,45.10
2018-09-18T21:50:02.861Z,45.30
2018-09-18T21:52:31.093Z,44.90
2018-09-18T21:54:59.409Z,45.10
2018-09-18T21:57:27.723Z,44.90
2018-09-18T21:59:55.939Z,45.10
2018-09-18T22:02:24.281Z,45.30
2018-09-18T22:04:52.596Z,45.50
2018-09-18T22:07:20.851Z,46.20
2018-09-18T22:09:49.104Z,45.60
2018-09-18T22:12:20.572Z,46.20
2018-09-18T22:14:48.765Z,46.30
2018-09-18T22:17:17.031Z,46.40
2018-09-18T22:19:45.312Z,46.70
2018-09-18T22:22:13.570Z,46.90
2018-09-18T22:24:41.805Z,47.00
2018-09-18T22:27:10.026Z,46.90
2018-09-18T22:29:38.303Z,47.00
2018-09-18T22:32:06.563Z,47.30
2018-09-18T22:34:34.797Z,47.40
2018-09-18T22:37:03.020Z,47.70
2018-09-18T22:39:31.246Z,48.10
2018-09-18T22:41:59.622Z,48.60
2018-09-18T22:44:27.877Z,48.60
2018-09-18T22:46:56.132Z,48.90
2018-09-18T22:49:24.388Z,49.40
2018-09-18T22:51:52.684Z,49.40
2018-09-18T22:54:20.940Z,49.50
2018-09-18T22:56:49.202Z,50.10
2018-09-18T22:59:17.462Z,50.40
2018-09-18T23:01:45.724Z,50.60
2018-09-18T23:04:13.992Z,50.90
2018-09-18T23:06:42.435Z,50.70
2018-09-18T23:09:10.718Z,50.80
2018-09-18T23:11:39.079Z,50.80
2018-09-18T23:14:07.428Z,51.50
2018-09-18T23:16:35.844Z,51.60
2018-09-18T23:19:04.129Z,51.60
2018-09-18T23:21:32.356Z,51.50
2018-09-18T23:24:00.565Z,51.30
2018-09-18T23:26:28.836Z,51.20
2018-09-18T23:28:57.081Z,50.90
2018-09-18T23:31:25.365Z,51.10
2018-09-18T23:33:53.633Z,51.90
2018-09-18T23:36:21.868Z,51.30
2018-09-18T23:38:50.109Z,51.70
2018-09-18T23:41:18.405Z,51.60
2018-09-18T23:43:46.683Z,51.60
2018-09-18T23:46:14.927Z,51.40
2018-09-18T23:48:43.133Z,51.70
2018-09-18T23:51:11.457Z,51.50
2018-09-18T23:53:39.664Z,51.60
2018-09-18T23:56:07.866Z,52.40
2018-09-18T23:58:36.194Z,51.80
